Time;durP1;ratioP1;P1;durP2;ratioP2;P2;SDS_P1;SDS_P2;PMS_P1;PMS_P2;Temp;Humidity;BMP_temperature;BMP_pressure;BME280_temperature;BME280_humidity;BME280_pressure;Samples;Min_cycle;Max_cycle;Signal;HPM_P1;HPM_P2
2021/12/16 00:09:29;;;;;;;72.05;33.78;;;;;;;5.62;91.80;101596.73;3510047;78;21402;-74
2021/12/16 00:34:38;;;;;;;69.17;31.35;;;;;;;5.65;91.87;101589.16;3503153;79;21418;-76
2021/12/16 00:39:33;;;;;;;75.22;34.58;;;;;;;5.66;91.91;101588.33;3455220;79;22467;-75
2021/12/16 00:54:17;;;;;;;69.32;31.40;;;;;;;5.71;91.97;101580.42;3509070;78;20992;-75
2021/12/16 00:59:11;;;;;;;70.45;30.97;;;;;;;5.72;91.91;101580.92;3530835;78;21452;-75
2021/12/16 01:04:37;;;;;;;68.20;32.45;;;;;;;5.73;91.96;101580.09;3469606;78;21891;-75
2021/12/16 01:35:32;;;;;;;62.98;27.77;;;;;;;5.83;92.35;101546.99;3513045;78;20963;-75
2021/12/16 01:45:39;;;;;;;69.50;30.85;;;;;;;5.86;92.30;101539.41;3540976;78;20964;-76
2021/12/16 01:50:27;;;;;;;65.95;29.00;;;;;;;5.88;92.25;101531.34;3534086;78;20963;-75
2021/12/16 02:00:25;;;;;;;64.43;28.43;;;;;;;5.91;92.32;101525.05;3526332;79;21030;-75
2021/12/16 02:10:44;;;;;;;50.85;24.85;;;;;;;5.96;92.26;101526.19;3554138;78;20989;-74
2021/12/16 02:36:02;;;;;;;64.40;30.43;;;;;;;6.04;92.34;101527.42;3529629;79;20990;-75
2021/12/16 02:40:53;;;;;;;58.23;29.07;;;;;;;6.07;92.36;101537.03;3519306;78;20943;-75
2021/12/16 02:50:59;;;;;;;56.77;26.77;;;;;;;6.09;92.48;101532.41;3503418;78;21058;-74
2021/12/16 02:55:50;;;;;;;61.23;28.60;;;;;;;6.10;92.41;101535.48;3470546;78;20879;-75
2021/12/16 03:00:47;;;;;;;60.48;29.37;;;;;;;6.14;92.48;101537.81;3544757;78;22142;-75
2021/12/16 03:05:39;;;;;;;58.08;27.45;;;;;;;6.15;92.51;101534.39;3540911;78;21022;-75
2021/12/16 03:11:01;;;;;;;54.75;27.00;;;;;;;6.18;92.42;101529.80;3503596;78;22014;-75
2021/12/16 03:15:55;;;;;;;59.83;28.45;;;;;;;6.21;92.44;101535.13;3482211;78;20948;-75
2021/12/16 03:20:44;;;;;;;57.48;27.75;;;;;;;6.21;92.41;101532.13;3531661;78;20952;-76
2021/12/16 03:25:51;;;;;;;55.60;26.73;;;;;;;6.23;92.38;101541.24;3481689;79;20917;-76
2021/12/16 03:36:04;;;;;;;60.10;29.92;;;;;;;6.25;92.45;101535.73;3519739;78;20964;-74
2021/12/16 03:40:44;;;;;;;57.75;27.77;;;;;;;6.27;92.38;101534.98;3490784;78;20978;-75
2021/12/16 03:51:03;;;;;;;68.62;33.38;;;;;;;6.28;92.41;101533.31;3547820;78;20952;-76
2021/12/16 03:55:55;;;;;;;58.78;29.50;;;;;;;6.28;92.36;101532.89;3497880;78;20932;-76
2021/12/16 04:00:53;;;;;;;55.17;28.52;;;;;;;6.29;92.34;101527.31;3513553;78;21214;-75
2021/12/16 04:05:46;;;;;;;59.93;30.88;;;;;;;6.30;92.29;101531.68;3533981;78;21750;-75
2021/12/16 04:11:02;;;;;;;60.80;30.80;;;;;;;6.30;92.26;101526.09;3479102;79;21003;-76
2021/12/16 04:15:48;;;;;;;57.65;31.25;;;;;;;6.30;92.18;101526.09;3539630;78;20920;-76
2021/12/16 04:20:42;;;;;;;47.80;26.45;;;;;;;6.31;92.17;101524.39;3571763;78;21078;-76
2021/12/16 04:25:38;;;;;;;58.63;31.70;;;;;;;6.30;92.15;101512.31;3530381;78;21118;-76
2021/12/16 04:30:34;;;;;;;52.30;29.32;;;;;;;6.31;92.11;101515.36;3543842;78;20960;-76
2021/12/16 04:35:27;;;;;;;55.50;29.85;;;;;;;6.29;92.14;101513.98;3540858;78;20951;-76
2021/12/16 04:40:19;;;;;;;58.33;30.02;;;;;;;6.30;92.08;101515.77;3506165;78;20948;-76
2021/12/16 04:45:18;;;;;;;46.18;26.95;;;;;;;6.29;92.05;101501.07;3552756;78;21059;-76
2021/12/16 04:50:12;;;;;;;59.67;31.10;;;;;;;6.30;92.05;101496.81;3562629;78;21038;-76
2021/12/16 04:55:08;;;;;;;59.40;33.23;;;;;;;6.30;92.02;101504.14;3543109;78;21030;-76
2021/12/16 04:59:59;;;;;;;56.68;31.82;;;;;;;6.29;91.97;101484.70;3495506;78;20920;-75
2021/12/16 05:04:53;;;;;;;50.95;31.42;;;;;;;6.25;91.95;101486.25;3563398;78;20983;-76
2021/12/16 05:10:06;;;;;;;52.08;28.85;;;;;;;6.24;91.93;101480.63;3516163;78;20987;-76
2021/12/16 05:14:56;;;;;;;58.98;31.65;;;;;;;6.23;91.94;101487.02;3478073;78;22463;-75
2021/12/16 05:19:51;;;;;;;57.70;31.70;;;;;;;6.21;91.92;101495.09;3503172;79;20955;-76
2021/12/16 05:24:43;;;;;;;53.30;31.42;;;;;;;6.21;91.96;101498.55;3496985;79;21059;-75
2021/12/16 05:29:38;;;;;;;55.23;31.77;;;;;;;6.21;91.94;101488.64;3496108;79;21390;-75
2021/12/16 05:34:31;;;;;;;47.58;27.17;;;;;;;6.21;91.90;101489.93;3480694;79;21505;-75
2021/12/16 05:39:24;;;;;;;52.48;31.80;;;;;;;6.21;91.87;101492.52;3460683;79;21328;-75
2021/12/16 05:44:17;;;;;;;40.90;24.45;;;;;;;6.21;91.85;101496.39;3541022;79;20966;-74
2021/12/16 05:49:13;;;;;;;55.73;31.80;;;;;;;6.22;91.88;101495.55;3514776;79;22041;-75
2021/12/16 05:54:07;;;;;;;48.25;27.25;;;;;;;6.23;91.83;101489.59;3518629;79;20928;-75
2021/12/16 05:59:02;;;;;;;38.20;25.32;;;;;;;6.23;91.78;101495.63;3507603;79;20968;-74
2021/12/16 06:03:54;;;;;;;54.35;33.70;;;;;;;6.23;91.89;101489.59;3470042;79;21131;-75
2021/12/16 06:08:48;;;;;;;52.05;31.48;;;;;;;6.24;91.88;101493.92;3533943;78;20917;-75
2021/12/16 06:29:21;;;;;;;41.63;26.20;;;;;;;6.20;92.02;101492.02;3513712;79;21456;-75
2021/12/16 06:34:12;;;;;;;42.60;28.52;;;;;;;6.19;92.08;101498.89;3461580;79;21429;-75
2021/12/16 06:39:05;;;;;;;49.25;30.68;;;;;;;6.20;92.06;101501.06;3497859;79;20971;-75
2021/12/16 06:44:01;;;;;;;47.88;27.58;;;;;;;6.22;92.05;101502.02;3506009;79;21533;-75
2021/12/16 06:48:57;;;;;;;44.65;28.07;;;;;;;6.20;92.03;101504.94;3464740;79;20928;-75
2021/12/16 06:54:04;;;;;;;48.15;28.95;;;;;;;6.21;92.07;101502.43;3432199;79;21830;-76
2021/12/16 06:59:01;;;;;;;48.45;29.90;;;;;;;6.22;92.05;101505.88;3528138;79;21496;-75
2021/12/16 07:03:49;;;;;;;52.13;30.23;;;;;;;6.23;92.05;101512.42;3449858;78;21632;-75
2021/12/16 07:08:39;;;;;;;46.87;28.73;;;;;;;6.24;92.03;101516.78;3531390;79;20936;-75
2021/12/16 07:13:37;;;;;;;48.28;29.92;;;;;;;6.25;92.04;101512.50;3465734;79;20936;-75
2021/12/16 07:18:24;;;;;;;50.03;30.62;;;;;;;6.27;91.99;101506.58;3537692;79;21201;-76
2021/12/16 07:23:16;;;;;;;50.45;32.03;;;;;;;6.30;91.97;101507.14;3458313;79;20929;-75
2021/12/16 07:28:09;;;;;;;44.65;30.17;;;;;;;6.30;91.95;101499.40;3494672;79;20975;-74
2021/12/16 07:33:00;;;;;;;45.80;28.23;;;;;;;6.34;91.95;101498.72;3486499;78;20901;-75
2021/12/16 07:37:52;;;;;;;42.70;25.15;;;;;;;6.36;91.92;101485.46;3487231;79;22007;-75
2021/12/16 07:43:10;;;;;;;44.95;28.35;;;;;;;6.38;91.92;101487.70;3475755;79;21095;-76
2021/12/16 07:47:38;;;;;;;42.00;27.95;;;;;;;6.43;91.87;101484.94;3503406;78;20909;-75
2021/12/16 07:52:29;;;;;;;40.15;27.00;;;;;;;6.46;91.84;101488.95;3480508;79;21567;-76
2021/12/16 07:57:20;;;;;;;40.03;25.62;;;;;;;6.48;91.81;101495.07;3418919;79;20979;-75
2021/12/16 08:02:11;;;;;;;34.40;23.30;;;;;;;6.49;91.77;101489.11;3488439;79;20967;-75
2021/12/16 08:07:06;;;;;;;34.78;23.87;;;;;;;6.52;91.77;101466.39;3490912;79;20999;-75
2021/12/16 08:11:58;;;;;;;37.42;23.15;;;;;;;6.54;91.76;101469.05;3485091;78;20995;-74
2021/12/16 08:16:50;;;;;;;39.83;25.60;;;;;;;6.56;91.75;101491.95;3467228;79;20877;-75
2021/12/16 08:21:41;;;;;;;39.73;25.20;;;;;;;6.56;91.79;101489.38;3523704;79;21409;-76
2021/12/16 08:26:36;;;;;;;41.98;25.75;;;;;;;6.56;91.85;101494.54;3486556;79;21015;-76
2021/12/16 08:31:30;;;;;;;40.43;26.02;;;;;;;6.57;91.86;101493.73;3498702;79;21158;-74
2021/12/16 08:36:21;;;;;;;41.10;26.30;;;;;;;6.58;91.89;101492.91;3476352;79;20988;-74
2021/12/16 08:41:18;;;;;;;37.83;24.43;;;;;;;6.60;91.85;101482.23;3437772;79;20921;-74
2021/12/16 08:46:16;;;;;;;46.40;28.07;;;;;;;6.59;91.87;101493.39;3462006;79;21500;-74
2021/12/16 08:51:08;;;;;;;38.83;24.63;;;;;;;6.60;91.88;101502.90;3476649;79;20881;-74
2021/12/16 08:55:59;;;;;;;39.53;24.90;;;;;;;6.61;91.94;101505.97;3494977;79;21030;-74
2021/12/16 09:00:56;;;;;;;37.55;24.92;;;;;;;6.60;91.95;101502.52;3466940;79;21371;-75
2021/12/16 09:05:48;;;;;;;37.73;25.20;;;;;;;6.62;91.97;101501.30;3521292;78;20971;-75
2021/12/16 09:10:40;;;;;;;36.90;23.77;;;;;;;6.62;92.00;101494.42;3512355;79;21003;-76
2021/12/16 09:15:44;;;;;;;37.48;23.50;;;;;;;6.63;92.01;101501.75;3434084;79;20956;-76
2021/12/16 09:20:37;;;;;;;39.67;24.23;;;;;;;6.64;92.07;101494.50;3551528;78;21085;-75
2021/12/16 09:25:29;;;;;;;37.40;22.70;;;;;;;6.65;92.05;101471.69;3539625;78;20936;-74
2021/12/16 09:30:25;;;;;;;36.28;23.30;;;;;;;6.72;92.08;101483.20;3543597;79;21406;-75
2021/12/16 09:35:17;;;;;;;38.60;23.77;;;;;;;6.73;92.02;101481.98;3522064;79;21457;-77
2021/12/16 09:40:14;;;;;;;31.70;22.22;;;;;;;6.73;92.03;101487.15;3520837;78;20983;-75
2021/12/16 09:45:08;;;;;;;29.82;20.50;;;;;;;6.76;92.04;101478.25;3488511;78;21465;-74
2021/12/16 09:50:00;;;;;;;37.60;22.77;;;;;;;6.81;92.02;101474.14;3498169;78;21444;-75
2021/12/16 09:54:51;;;;;;;30.70;21.37;;;;;;;6.84;91.96;101473.00;3465899;79;20982;-75
2021/12/16 09:59:42;;;;;;;32.48;20.60;;;;;;;6.84;91.95;101484.63;3507412;79;21062;-74
2021/12/16 10:04:35;;;;;;;30.00;21.68;;;;;;;6.85;92.01;101481.23;3510741;78;20935;-74
2021/12/16 10:09:28;;;;;;;28.05;19.17;;;;;;;6.85;91.97;101483.83;3522299;78;21123;-75
2021/12/16 10:17:22;;;;;;;27.60;19.85;;;;;;;6.84;92.00;101479.88;3493201;79;20982;-75
2021/12/16 10:19:15;;;;;;;29.85;20.25;;;;;;;6.85;92.06;101495.88;3487172;79;20956;-77
2021/12/16 10:24:22;;;;;;;32.88;21.25;;;;;;;6.85;92.07;101478.66;3490861;79;20935;-77
2021/12/16 10:29:13;;;;;;;31.97;20.68;;;;;;;6.87;92.01;101470.55;3527838;78;20989;-76
2021/12/16 10:34:09;;;;;;;27.67;18.40;;;;;;;6.87;92.02;101465.80;3531420;79;21893;-75
2021/12/16 10:39:22;;;;;;;25.95;17.20;;;;;;;6.91;92.07;101452.60;3503632;79;21472;-79
2021/12/16 10:44:21;;;;;;;26.55;18.82;;;;;;;6.90;92.02;101453.41;3482250;79;20999;-76
2021/12/16 10:49:17;;;;;;;27.67;19.10;;;;;;;6.93;92.06;101454.42;3520475;79;20956;-73
2021/12/16 10:54:28;;;;;;;34.18;20.17;;;;;;;6.91;92.02;101450.89;3523847;79;21007;-72
2021/12/16 10:59:27;;;;;;;29.77;22.37;;;;;;;6.93;92.02;101460.01;3472493;79;21516;-75
2021/12/16 11:04:33;;;;;;;27.10;18.82;;;;;;;6.93;92.02;101459.59;3504581;78;20980;-74
2021/12/16 11:09:39;;;;;;;25.15;17.37;;;;;;;6.96;92.03;101457.56;3526437;78;20923;-74
2021/12/16 11:14:30;;;;;;;24.82;16.42;;;;;;;6.95;92.00;101459.24;3545166;79;20983;-72
2021/12/16 11:19:45;;;;;;;29.10;17.42;;;;;;;6.97;92.09;101456.73;3539169;78;20959;-74
2021/12/16 11:24:36;;;;;;;25.08;17.73;;;;;;;6.98;92.04;101454.22;3301457;84;21908;-74
2021/12/16 11:29:31;;;;;;;22.50;16.90;;;;;;;6.99;92.10;101442.16;3287140;83;21015;-74
2021/12/16 11:34:23;;;;;;;23.75;17.35;;;;;;;6.97;92.07;101439.92;3246401;83;21011;-75
2021/12/16 11:39:19;;;;;;;23.87;17.02;;;;;;;6.97;92.10;101433.46;3323563;83;21083;-74
2021/12/16 11:44:24;;;;;;;23.07;16.03;;;;;;;6.96;92.09;101436.89;3336638;83;20995;-75
2021/12/16 11:49:44;;;;;;;22.32;15.78;;;;;;;6.96;92.09;101444.64;3282162;83;21052;-74
2021/12/16 11:54:43;;;;;;;22.13;14.40;;;;;;;6.97;92.07;101451.56;3294816;84;20989;-75
2021/12/16 11:59:40;;;;;;;15.48;12.00;;;;;;;7.01;91.98;101446.98;3363097;79;20905;-74
2021/12/16 12:04:36;;;;;;;22.17;14.60;;;;;;;7.06;91.88;101428.68;3543705;78;21209;-75
2021/12/16 12:09:39;;;;;;;18.85;13.70;;;;;;;7.10;91.80;101440.95;3548974;78;20921;-74
2021/12/16 12:14:34;;;;;;;17.07;12.28;;;;;;;7.11;91.72;101436.23;3524466;79;21935;-79
2021/12/16 12:19:26;;;;;;;15.55;11.00;;;;;;;7.13;91.60;101435.88;3498991;79;21445;-76
2021/12/16 12:24:27;;;;;;;11.88;9.58;;;;;;;7.13;91.43;101432.00;3434635;79;21003;-71
2021/12/16 12:29:35;;;;;;;13.48;10.32;;;;;;;7.18;91.37;101429.20;3501948;79;20971;-72
2021/12/16 12:34:29;;;;;;;10.72;8.78;;;;;;;7.16;91.13;101420.50;3499578;79;20932;-75
2021/12/16 12:39:25;;;;;;;10.85;8.25;;;;;;;7.13;90.87;101433.30;3412642;79;21404;-76
2021/12/16 12:44:18;;;;;;;9.73;8.08;;;;;;;7.10;90.76;101430.60;3524650;79;20952;-75
2021/12/16 12:49:14;;;;;;;9.88;7.58;;;;;;;7.06;90.75;101435.14;3519978;79;20951;-74
2021/12/16 12:54:23;;;;;;;8.63;6.90;;;;;;;7.03;90.60;101437.63;3533295;79;21057;-76
2021/12/16 12:59:17;;;;;;;8.58;6.42;;;;;;;7.00;90.24;101429.73;3493591;80;21474;-75
2021/12/16 13:04:22;;;;;;;8.58;6.83;;;;;;;6.98;90.30;101423.61;3516887;78;21171;-73
2021/12/16 13:09:34;;;;;;;7.20;6.28;;;;;;;6.97;89.77;101425.70;3503389;79;21695;-75
2021/12/16 13:14:48;;;;;;;9.15;6.75;;;;;;;6.95;89.84;101428.64;3515678;79;20960;-77
2021/12/16 13:29:40;;;;;;;6.90;5.42;;;;;;;6.93;89.26;101431.57;3467474;79;21122;-80
2021/12/16 13:35:05;;;;;;;6.15;5.03;;;;;;;6.92;89.06;101432.38;3503609;79;22031;-75
2021/12/16 13:39:59;;;;;;;4.62;4.22;;;;;;;6.92;88.90;101422.94;3501714;79;20920;-76
2021/12/16 13:45:04;;;;;;;4.97;4.20;;;;;;;6.91;88.56;101425.45;3547024;79;21146;-74
2021/12/16 14:10:57;;;;;;;4.42;3.72;;;;;;;6.83;87.84;101440.23;3551260;79;20908;-79
2021/12/16 14:16:12;;;;;;;3.75;3.35;;;;;;;6.81;87.45;101456.05;3483418;79;20999;-74
2021/12/16 14:26:33;;;;;;;4.40;3.33;;;;;;;6.78;87.26;101467.57;3553459;78;20954;-74
2021/12/16 14:36:49;;;;;;;6.20;3.92;;;;;;;6.75;87.01;101484.22;3498655;78;20960;-78
2021/12/16 14:41:25;;;;;;;5.92;4.00;;;;;;;6.74;86.99;101526.38;3508301;78;20939;-74
2021/12/16 14:46:04;;;;;;;6.40;4.17;;;;;;;6.73;86.74;101519.88;3526432;79;21244;-74
2021/12/16 14:51:13;;;;;;;5.03;3.67;;;;;;;6.73;86.32;101527.21;3511323;78;20936;-74
2021/12/16 14:56:20;;;;;;;5.37;3.72;;;;;;;6.72;86.20;101513.80;3512150;79;20960;-76
2021/12/16 15:01:23;;;;;;;4.35;3.67;;;;;;;6.73;86.06;101527.21;3554426;79;20963;-74
2021/12/16 15:06:23;;;;;;;4.67;3.58;;;;;;;6.74;85.94;101528.96;3558122;79;20940;-74
2021/12/16 15:11:24;;;;;;;6.55;4.28;;;;;;;6.74;85.76;101516.04;3536724;78;21983;-75
2021/12/16 15:16:37;;;;;;;5.78;4.58;;;;;;;6.74;85.75;101492.78;3521882;79;20971;-74
2021/12/16 15:47:45;;;;;;;4.58;4.10;;;;;;;6.64;85.47;101498.37;3478463;79;20944;-73
2021/12/16 15:52:44;;;;;;;4.58;3.58;;;;;;;6.59;85.27;101497.27;3553376;79;20991;-73
2021/12/16 15:57:35;;;;;;;5.47;4.20;;;;;;;6.52;85.18;101498.68;3498298;79;20999;-73
2021/12/16 16:02:27;;;;;;;5.12;4.22;;;;;;;6.45;85.03;101528.50;3468006;78;21195;-74
2021/12/16 16:07:18;;;;;;;8.00;4.58;;;;;;;6.44;85.02;101534.50;3516232;79;20975;-75
2021/12/16 16:12:17;;;;;;;5.10;3.67;;;;;;;6.45;85.03;101559.51;3467419;78;20916;-73
2021/12/16 16:17:14;;;;;;;11.80;6.85;;;;;;;6.44;84.83;101542.26;3476409;78;20948;-74
2021/12/16 16:22:03;;;;;;;6.92;4.62;;;;;;;6.43;84.84;101539.18;3485087;79;20917;-73
2021/12/16 16:26:59;;;;;;;6.92;3.67;;;;;;;6.42;84.83;101561.06;3461728;79;21202;-74
2021/12/16 16:31:52;;;;;;;9.00;5.10;;;;;;;6.39;84.45;101561.81;3509685;78;20954;-74
2021/12/16 16:36:48;;;;;;;9.75;4.53;;;;;;;6.34;84.21;101573.63;3537774;78;20997;-75
2021/12/16 16:41:45;;;;;;;6.00;4.03;;;;;;;6.28;84.01;101569.47;3532160;78;20956;-74
2021/12/16 16:46:53;;;;;;;7.65;3.55;;;;;;;6.12;83.85;101565.26;3472792;79;20983;-76
2021/12/16 16:51:47;;;;;;;5.25;3.50;;;;;;;5.96;83.78;101559.75;3532468;79;21049;-71
2021/12/16 16:56:58;;;;;;;7.50;3.90;;;;;;;5.81;83.62;101549.53;3471980;79;20978;-72
2021/12/16 17:01:50;;;;;;;6.53;4.30;;;;;;;5.67;83.94;101560.44;3477693;79;20916;-73
2021/12/16 17:06:54;;;;;;;7.55;4.22;;;;;;;5.57;83.94;101568.52;3513378;79;20952;-72
2021/12/16 17:11:50;;;;;;;6.83;3.90;;;;;;;5.49;84.06;101568.52;3521800;79;21600;-73
2021/12/16 17:17:13;;;;;;;11.05;4.78;;;;;;;5.48;84.23;101559.03;3456188;79;21014;-72
2021/12/16 17:22:15;;;;;;;10.35;4.25;;;;;;;5.48;84.34;101562.89;3485332;79;20964;-73
2021/12/16 17:27:10;;;;;;;8.03;4.55;;;;;;;5.54;84.44;101568.35;3530778;79;20920;-72
2021/12/16 17:32:15;;;;;;;11.12;5.25;;;;;;;5.61;84.42;101571.73;3508489;79;20927;-73
2021/12/16 17:37:35;;;;;;;13.13;4.40;;;;;;;5.67;84.42;101582.37;3551384;78;20920;-72
2021/12/16 17:42:41;;;;;;;8.45;4.25;;;;;;;5.71;84.30;101583.00;3509086;78;21895;-73
2021/12/16 17:47:36;;;;;;;7.05;3.58;;;;;;;5.72;84.13;101588.66;3515120;79;21026;-72
2021/12/16 17:52:32;;;;;;;10.35;4.28;;;;;;;5.75;84.29;101587.04;3475170;79;20990;-72
2021/12/16 17:57:28;;;;;;;14.60;4.37;;;;;;;5.78;84.35;101579.42;3490105;79;21402;-73
2021/12/16 18:02:22;;;;;;;7.70;4.50;;;;;;;5.79;84.31;101585.08;3509836;78;21104;-73
2021/12/16 18:07:14;;;;;;;10.60;4.10;;;;;;;5.79;84.25;101579.92;3536049;79;21404;-73
2021/12/16 18:12:23;;;;;;;10.58;4.78;;;;;;;5.80;84.20;101585.58;3492260;79;20943;-72
2021/12/16 18:17:26;;;;;;;8.18;4.03;;;;;;;5.80;84.13;101571.38;3537772;78;20975;-72
2021/12/16 18:22:26;;;;;;;9.20;6.03;;;;;;;5.79;84.03;101561.44;3559987;78;20990;-72
2021/12/16 18:27:25;;;;;;;8.15;4.30;;;;;;;5.80;84.02;101571.38;3576822;78;20936;-72
2021/12/16 18:32:20;;;;;;;10.08;5.15;;;;;;;5.80;84.02;101577.84;3514395;78;22134;-73
2021/12/16 18:37:22;;;;;;;11.40;5.15;;;;;;;5.80;83.97;101580.41;3496953;78;21511;-73
2021/12/16 18:42:29;;;;;;;12.30;6.10;;;;;;;5.80;84.00;101585.16;3533006;78;20971;-73
2021/12/16 18:47:42;;;;;;;11.68;4.75;;;;;;;5.79;83.89;101573.47;3533680;78;20907;-72
2021/12/16 18:57:51;;;;;;;12.43;6.03;;;;;;;5.71;83.79;101567.52;3524131;78;21051;-72
2021/12/16 19:02:42;;;;;;;12.00;7.10;;;;;;;5.67;83.93;101574.63;3471515;78;20950;-72
2021/12/16 19:07:35;;;;;;;12.90;6.37;;;;;;;5.64;83.72;101582.20;3539291;78;21465;-72
2021/12/16 19:12:31;;;;;;;11.88;5.50;;;;;;;5.63;84.03;101588.16;3530076;78;22084;-71
2021/12/16 19:17:23;;;;;;;14.07;6.87;;;;;;;5.61;83.89;101589.78;3559018;78;20927;-72
2021/12/16 19:22:20;;;;;;;15.40;7.30;;;;;;;5.60;83.84;101588.03;3450808;79;21525;-72
2021/12/16 19:27:14;;;;;;;14.63;6.30;;;;;;;5.57;83.99;101584.00;3497436;79;20946;-72
2021/12/16 19:32:07;;;;;;;15.40;7.10;;;;;;;5.56;83.84;101595.11;3376518;79;20962;-72
2021/12/16 19:36:59;;;;;;;14.87;7.15;;;;;;;5.54;83.84;101604.09;3417725;80;20969;-72
2021/12/16 19:41:51;;;;;;;14.73;5.62;;;;;;;5.53;83.90;101618.19;3454705;79;21420;-73
2021/12/16 19:46:44;;;;;;;16.90;6.12;;;;;;;5.51;83.82;101624.97;3438877;80;21471;-73
2021/12/16 19:51:37;;;;;;;11.88;5.10;;;;;;;5.50;83.85;101623.19;3438501;79;20991;-72
2021/12/16 19:56:28;;;;;;;13.50;5.67;;;;;;;5.48;83.80;101624.80;3457119;80;20954;-72
2021/12/16 20:01:27;;;;;;;10.25;5.22;;;;;;;5.46;83.79;101621.27;3440779;79;21046;-72
2021/12/16 20:06:19;;;;;;;10.50;5.42;;;;;;;5.45;83.82;101628.09;3486276;79;21009;-72
2021/12/16 20:11:15;;;;;;;15.75;6.58;;;;;;;5.45;83.83;101619.47;3448348;80;21034;-73
2021/12/16 20:16:12;;;;;;;11.25;6.12;;;;;;;5.46;83.74;101622.55;3446410;79;21018;-72
2021/12/16 20:21:17;;;;;;;16.13;6.87;;;;;;;5.44;83.71;101631.91;3501098;78;21062;-72
2021/12/16 20:26:13;;;;;;;21.20;7.03;;;;;;;5.41;83.54;101629.16;3561709;78;21018;-72
2021/12/16 20:31:19;;;;;;;14.10;6.03;;;;;;;5.41;83.45;101622.70;3541854;78;20991;-71
2021/12/16 20:36:15;;;;;;;16.12;6.00;;;;;;;5.38;83.59;101629.86;3515047;78;21017;-72
2021/12/16 20:41:12;;;;;;;21.42;7.83;;;;;;;5.37;83.56;101639.72;3547153;78;20974;-71
2021/12/16 20:46:11;;;;;;;17.17;5.78;;;;;;;5.38;83.61;101645.75;3501987;78;20979;-72
2021/12/16 20:51:06;;;;;;;14.58;5.25;;;;;;;5.38;83.55;101647.04;3547119;79;20983;-72
2021/12/16 20:55:58;;;;;;;19.52;6.65;;;;;;;5.37;83.66;101637.55;3544146;79;20928;-72
2021/12/16 21:00:54;;;;;;;13.03;5.42;;;;;;;5.37;83.63;101656.89;3556080;78;21432;-72
2021/12/16 21:05:51;;;;;;;18.57;7.55;;;;;;;5.35;83.59;101647.78;3564936;78;20952;-72
2021/12/16 21:10:44;;;;;;;16.80;5.67;;;;;;;5.33;83.66;101645.11;3537809;78;21005;-73
2021/12/16 21:15:39;;;;;;;15.78;6.53;;;;;;;5.31;83.61;101644.15;3541954;78;21478;-72
2021/12/16 21:20:39;;;;;;;16.30;5.92;;;;;;;5.30;83.65;101639.78;3504737;78;37823;-72
2021/12/16 21:25:33;;;;;;;;;;;;;;;5.31;83.64;101651.89;3496954;78;21089;-72
2021/12/16 21:30:29;;;;;;;16.32;5.95;;;;;;;5.28;83.57;101639.23;3521871;78;20140;-72
2021/12/16 21:35:28;;;;;;;16.17;6.20;;;;;;;5.25;83.60;101650.25;3472516;78;20938;-72
2021/12/16 21:40:26;;;;;;;13.03;5.80;;;;;;;5.24;83.61;101652.36;3522341;79;21534;-73
2021/12/16 21:45:23;;;;;;;18.05;7.33;;;;;;;5.23;83.62;101660.02;3552084;78;21591;-71
2021/12/16 21:50:27;;;;;;;15.60;6.67;;;;;;;5.22;83.66;101674.57;3540778;79;21951;-72
2021/12/16 21:55:22;;;;;;;14.93;5.97;;;;;;;5.20;83.51;101671.03;3555224;78;21502;-72
2021/12/16 22:00:21;;;;;;;12.88;5.95;;;;;;;5.18;83.58;101680.38;3491245;78;21612;-72
2021/12/16 22:05:17;;;;;;;15.72;6.22;;;;;;;5.16;83.56;101680.29;3546125;78;21459;-72
2021/12/16 22:10:12;;;;;;;22.03;7.13;;;;;;;5.15;83.57;101676.34;3517418;78;20999;-72
2021/12/16 22:15:09;;;;;;;13.40;6.87;;;;;;;5.15;83.51;101677.63;3545059;78;21624;-72
2021/12/16 22:20:07;;;;;;;16.97;5.75;;;;;;;5.12;83.60;101678.77;3558794;78;20916;-73
2021/12/16 22:25:00;;;;;;;14.70;6.15;;;;;;;5.09;83.49;101668.28;3570114;78;20912;-72
2021/12/16 22:29:52;;;;;;;16.07;6.97;;;;;;;5.10;83.47;101661.05;3519547;79;20987;-72
2021/12/16 22:34:44;;;;;;;13.13;5.70;;;;;;;5.07;83.54;101658.30;3493223;79;20971;-72
2021/12/16 22:39:39;;;;;;;13.93;5.35;;;;;;;5.05;83.39;101657.33;3507785;79;21386;-70
2021/12/16 22:44:32;;;;;;;18.35;6.50;;;;;;;5.01;83.45;101642.48;3539052;78;20967;-72
2021/12/16 22:49:23;;;;;;;17.82;5.85;;;;;;;4.98;83.38;101646.20;3516480;78;20868;-72
2021/12/16 22:54:17;;;;;;;24.80;10.08;;;;;;;4.92;83.40;101651.50;3473850;78;20967;-72
2021/12/16 22:59:10;;;;;;;11.78;6.08;;;;;;;4.90;83.47;101641.52;3550039;78;20941;-72
2021/12/16 23:04:05;;;;;;;13.48;5.85;;;;;;;4.88;83.39;101634.11;3505399;78;21461;-72
2021/12/16 23:08:56;;;;;;;18.75;7.35;;;;;;;4.84;83.51;101634.72;3533071;78;21002;-72
2021/12/16 23:13:49;;;;;;;19.45;9.30;;;;;;;4.81;83.63;101632.00;3496899;78;21240;-72
2021/12/16 23:23:48;;;;;;;17.82;8.00;;;;;;;4.76;83.67;101641.16;3500812;78;21721;-72
2021/12/16 23:28:40;;;;;;;20.90;7.87;;;;;;;4.72;83.65;101636.61;3482579;78;21204;-73
2021/12/16 23:33:33;;;;;;;21.15;7.83;;;;;;;4.70;83.73;101631.78;3524318;79;20947;-72
2021/12/16 23:38:53;;;;;;;16.62;6.62;;;;;;;4.65;83.59;101629.34;3537220;78;21010;-72
2021/12/16 23:53:36;;;;;;;19.07;7.90;;;;;;;4.56;83.64;101612.60;3520846;78;21414;-72
2021/12/16 23:58:34;;;;;;;19.42;7.40;;;;;;;4.54;83.64;101603.91;3518140;78;20943;-72
